Terminal Aerodrome Forecast
Issued by NWS

Home | Current Version | Previous Version | Text Only | Print | Product List | Glossary On
Versions: 1 2 3 4 5 6 7 8 9 10 11 12 13 14 15
000
FTUS45 KABQ 220500
TAFSAF
TAF
KSAF 220533Z 2206/2306 15006KT P6SM SCT045 BKN100
     FM220700 02006KT P6SM SCT025 BKN050
     FM221500 32007KT P6SM SCT040 SCT070
     FM222000 27008KT P6SM FEW070 SCT140=

USA.gov is the U.S. government's official web portal to all federal, state and local government web resources and services.